Time;durP1;ratioP1;P1;durP2;ratioP2;P2;SDS_P1;SDS_P2;PMS_P1;PMS_P2;Temp;Humidity;BMP_temperature;BMP_pressure;BME280_temperature;BME280_humidity;BME280_pressure;Samples;Min_cycle;Max_cycle;Signal;HPM_P1;HPM_P2
2023/07/18 00:00:25;;;;;;;1.60;1.10;;;17.10;99.90;;;17.40;100.00;101589.94;5223383;28;20049;-49
2023/07/18 00:03:00;;;;;;;3.05;1.48;;;17.10;99.90;;;17.39;100.00;101588.16;5222427;28;20132;-49
2023/07/18 00:05:33;;;;;;;2.20;1.30;;;17.00;99.90;;;17.35;100.00;101583.72;5223807;28;20406;-49
2023/07/18 00:08:05;;;;;;;2.20;1.30;;;17.00;99.90;;;17.30;100.00;101588.00;5223759;28;20045;-49
2023/07/18 00:10:39;;;;;;;1.85;1.30;;;16.90;99.90;;;17.27;100.00;101587.91;5224380;28;20040;-49
2023/07/18 00:13:12;;;;;;;1.75;1.35;;;16.90;99.90;;;17.21;100.00;101593.06;5223060;28;20053;-49
2023/07/18 00:15:44;;;;;;;1.95;1.17;;;16.90;99.90;;;17.19;100.00;101587.75;5223361;28;20061;-49
2023/07/18 00:18:17;;;;;;;2.08;1.20;;;16.80;99.90;;;17.17;100.00;101585.97;5223103;28;20060;-49
2023/07/18 00:20:49;;;;;;;2.65;1.20;;;16.80;99.90;;;17.15;100.00;101592.94;5223543;28;20041;-49
2023/07/18 00:23:25;;;;;;;1.85;1.25;;;16.80;99.90;;;17.12;100.00;101587.63;5223013;28;20048;-49
2023/07/18 00:25:58;;;;;;;2.10;1.23;;;16.70;99.90;;;17.07;100.00;101585.75;5224432;28;20472;-50
2023/07/18 00:28:31;;;;;;;2.63;1.35;;;16.70;99.90;;;17.04;100.00;101583.06;5222823;28;20052;-49
2023/07/18 00:31:06;;;;;;;3.13;1.25;;;16.70;99.90;;;17.01;100.00;101580.34;5222574;28;20052;-49
2023/07/18 00:33:39;;;;;;;3.78;1.30;;;16.70;99.90;;;16.98;100.00;101577.69;5222925;28;20047;-49
2023/07/18 00:36:11;;;;;;;1.67;1.15;;;16.60;99.90;;;16.94;100.00;101577.56;5223140;28;20389;-49
2023/07/18 00:38:43;;;;;;;2.25;1.35;;;16.60;99.90;;;16.89;100.00;101569.59;5219977;28;20055;-49
2023/07/18 00:41:17;;;;;;;2.53;1.10;;;16.50;99.90;;;16.87;100.00;101571.28;5212476;28;20045;-49
2023/07/18 00:43:50;;;;;;;3.50;1.63;;;16.50;99.90;;;16.86;100.00;101571.25;5222599;28;20041;-49
2023/07/18 00:46:22;;;;;;;2.42;1.30;;;16.50;99.90;;;16.85;100.00;101570.38;5222469;28;20410;-49
2023/07/18 00:48:55;;;;;;;1.92;1.10;;;16.50;99.90;;;16.82;100.00;101565.03;5222778;28;20068;-49
2023/07/18 00:51:27;;;;;;;2.42;1.30;;;16.50;99.90;;;16.79;100.00;101564.97;5222321;28;20056;-49
2023/07/18 00:54:01;;;;;;;2.70;1.27;;;16.40;99.90;;;16.75;100.00;101568.38;5222221;28;20053;-49
2023/07/18 00:56:35;;;;;;;1.88;1.20;;;16.40;99.90;;;16.72;100.00;101560.44;5222023;28;20441;-49
2023/07/18 00:59:08;;;;;;;2.28;1.30;;;16.40;99.90;;;16.72;100.00;101568.34;5221929;28;20067;-49
2023/07/18 01:01:41;;;;;;;2.25;1.40;;;16.40;99.90;;;16.69;100.00;101560.31;5218712;28;20045;-51
2023/07/18 01:04:13;;;;;;;2.55;1.52;;;16.30;99.90;;;16.66;100.00;101555.00;5221913;28;20052;-50
2023/07/18 01:06:46;;;;;;;2.78;1.27;;;16.30;99.90;;;16.64;100.00;101549.72;5222420;28;20048;-49
2023/07/18 01:09:22;;;;;;;2.75;1.50;;;16.30;99.90;;;16.60;100.00;101555.75;5221982;28;20538;-49
2023/07/18 01:11:56;;;;;;;2.60;1.42;;;16.30;99.90;;;16.57;100.00;101549.53;5221967;28;20041;-49
2023/07/18 01:14:28;;;;;;;2.80;1.20;;;16.30;99.90;;;16.52;100.00;101550.31;5221705;28;20045;-49
2023/07/18 01:17:01;;;;;;;3.60;1.45;;;16.20;99.90;;;16.50;100.00;101553.78;5221471;28;20049;-48
2023/07/18 01:19:35;;;;;;;2.65;1.20;;;16.20;99.90;;;16.47;100.00;101554.59;5211458;28;20052;-50
2023/07/18 01:22:09;;;;;;;2.95;1.13;;;16.20;99.90;;;16.44;100.00;101556.28;5221588;28;20041;-51
2023/07/18 01:24:41;;;;;;;2.72;1.10;;;16.10;99.90;;;16.39;100.00;101556.16;5221643;28;20049;-49
2023/07/18 01:27:14;;;;;;;1.80;1.17;;;16.10;99.90;;;16.36;100.00;101556.06;5221307;28;20072;-50
2023/07/18 01:29:48;;;;;;;2.50;1.30;;;16.00;99.90;;;16.32;100.00;101554.25;5222095;28;20425;-49
2023/07/18 01:32:20;;;;;;;3.00;1.30;;;16.00;99.90;;;16.26;100.00;101544.47;5219279;28;20506;-49
2023/07/18 01:34:53;;;;;;;2.53;1.15;;;16.00;99.90;;;16.23;100.00;101548.75;5221865;28;20045;-50
2023/07/18 01:37:27;;;;;;;1.77;1.00;;;15.90;99.90;;;16.20;100.00;101538.16;5221552;28;20099;-49
2023/07/18 01:39:59;;;;;;;2.47;1.20;;;15.90;99.90;;;16.18;100.00;101539.88;5222053;28;20049;-49
2023/07/18 01:42:32;;;;;;;1.98;1.30;;;15.90;99.90;;;16.14;100.00;101540.66;5221744;28;20446;-49
2023/07/18 01:45:05;;;;;;;2.35;1.75;;;15.80;99.90;;;16.11;100.00;101532.69;5222027;28;20041;-50
2023/07/18 01:47:38;;;;;;;1.77;1.25;;;15.80;99.90;;;16.09;100.00;101532.63;5221588;28;20090;-50
2023/07/18 01:50:11;;;;;;;1.40;1.05;;;15.80;99.90;;;16.07;100.00;101528.22;5221736;28;20469;-50
2023/07/18 01:52:46;;;;;;;2.30;1.23;;;15.70;99.90;;;16.05;100.00;101522.91;5221480;28;20037;-49
2023/07/18 01:55:22;;;;;;;2.58;1.20;;;15.70;99.90;;;16.02;100.00;101522.81;5221524;28;20143;-49
2023/07/18 01:57:54;;;;;;;2.38;1.35;;;15.70;99.90;;;15.99;100.00;101518.41;5213795;28;20049;-49
2023/07/18 02:00:27;;;;;;;1.75;1.00;;;15.70;99.90;;;15.96;100.00;101523.56;5213023;28;20068;-49
2023/07/18 02:02:59;;;;;;;1.35;0.95;;;15.70;99.90;;;15.93;100.00;101517.34;5223037;28;20052;-49
2023/07/18 02:05:33;;;;;;;2.63;1.38;;;15.60;99.90;;;15.88;100.00;101525.13;5221283;28;20403;-49
2023/07/18 02:08:07;;;;;;;2.53;1.20;;;15.60;99.90;;;15.85;100.00;101519.81;5221393;28;20086;-50
2023/07/18 02:10:39;;;;;;;2.03;1.13;;;15.50;99.90;;;15.84;100.00;101518.00;5220697;28;20508;-50
2023/07/18 02:13:11;;;;;;;2.03;1.02;;;15.60;99.90;;;15.82;100.00;101521.44;5221524;28;20049;-50
2023/07/18 02:15:44;;;;;;;2.47;1.20;;;15.50;99.90;;;15.80;100.00;101524.06;5221458;28;20037;-49
2023/07/18 02:18:16;;;;;;;2.67;1.20;;;15.50;99.90;;;15.79;100.00;101519.66;5221349;28;20049;-49
2023/07/18 02:20:49;;;;;;;3.13;1.30;;;15.50;99.90;;;15.80;100.00;101512.66;5221328;28;20060;-49
2023/07/18 02:23:26;;;;;;;2.15;1.40;;;15.50;99.90;;;15.73;100.00;101508.97;5204944;28;20108;-50
2023/07/18 02:25:58;;;;;;;3.45;1.30;;;15.40;99.90;;;15.72;100.00;101513.34;5221272;28;20497;-49
2023/07/18 02:28:30;;;;;;;2.15;1.13;;;15.50;99.90;;;15.72;100.00;101515.09;5221398;28;20139;-49
2023/07/18 02:31:04;;;;;;;2.90;1.15;;;15.50;99.90;;;15.71;100.00;101506.31;5221511;28;20171;-49
2023/07/18 02:33:37;;;;;;;1.95;1.25;;;15.40;99.90;;;15.67;100.00;101504.47;5220875;28;20056;-49
2023/07/18 02:36:11;;;;;;;1.98;1.20;;;15.40;99.90;;;15.64;100.00;101500.84;5213896;28;20068;-49
2023/07/18 02:38:45;;;;;;;2.60;1.30;;;15.40;99.90;;;15.59;100.00;101491.94;5237474;28;20399;-49
2023/07/18 02:41:18;;;;;;;2.88;1.42;;;15.30;99.90;;;15.56;100.00;101500.63;5220840;28;20045;-49
2023/07/18 02:43:50;;;;;;;2.53;1.35;;;15.30;99.90;;;15.55;100.00;101506.72;5221007;28;20371;-49
2023/07/18 02:46:22;;;;;;;2.13;1.30;;;15.30;99.90;;;15.54;100.00;101507.59;5221051;28;20055;-48
2023/07/18 02:48:55;;;;;;;3.05;1.20;;;15.30;99.90;;;15.52;100.00;101511.00;5221190;28;20139;-49
2023/07/18 02:51:27;;;;;;;1.50;1.10;;;15.20;99.90;;;15.46;100.00;101512.66;5220732;28;20071;-49
2023/07/18 02:54:02;;;;;;;2.22;1.27;;;15.20;99.90;;;15.41;100.00;101516.00;5212742;28;20425;-50
2023/07/18 02:56:35;;;;;;;2.22;1.02;;;15.10;99.90;;;15.37;100.00;101509.75;5212599;28;20049;-50
2023/07/18 02:59:08;;;;;;;2.03;1.17;;;15.10;99.90;;;15.37;100.00;101515.00;5220975;28;20080;-49
2023/07/18 03:01:40;;;;;;;2.95;1.40;;;15.10;99.90;;;15.38;100.00;101514.16;5217643;28;20049;-49
2023/07/18 03:04:12;;;;;;;2.28;1.20;;;15.10;99.90;;;15.41;100.00;101513.38;5233211;28;20409;-49
2023/07/18 03:06:47;;;;;;;2.58;1.27;;;15.10;99.90;;;15.41;100.00;101510.75;5220756;28;20052;-49
2023/07/18 03:09:21;;;;;;;3.60;1.45;;;15.10;99.90;;;15.36;100.00;101508.00;5212799;28;20041;-49
2023/07/18 03:11:54;;;;;;;2.30;1.23;;;15.10;99.90;;;15.35;100.00;101511.47;5220737;28;20603;-50
2023/07/18 03:14:26;;;;;;;2.78;1.50;;;15.10;99.90;;;15.33;100.00;101521.06;5219658;28;20053;-49
2023/07/18 03:16:59;;;;;;;1.95;1.40;;;15.00;99.90;;;15.28;100.00;101512.16;5215581;28;20052;-50
2023/07/18 03:19:32;;;;;;;3.30;1.40;;;15.00;99.90;;;15.24;100.00;101510.28;5212524;28;20414;-49
2023/07/18 03:22:06;;;;;;;2.38;1.50;;;15.00;99.90;;;15.21;100.00;101507.59;5223451;28;20313;-49
2023/07/18 03:24:40;;;;;;;2.05;1.25;;;15.00;99.90;;;15.17;100.00;101518.84;5216388;28;20059;-49
2023/07/18 03:27:13;;;;;;;2.47;1.33;;;14.90;99.90;;;15.15;100.00;101507.41;5224480;28;20577;-49
2023/07/18 03:29:48;;;;;;;3.13;1.45;;;14.90;99.90;;;15.12;100.00;101513.44;5224545;28;20064;-49
2023/07/18 03:32:20;;;;;;;2.55;1.27;;;14.90;99.90;;;15.10;100.00;101503.75;5224219;28;20649;-49
2023/07/18 03:34:53;;;;;;;1.45;1.05;;;14.80;99.90;;;15.08;100.00;101500.22;5224596;28;20082;-48
2023/07/18 03:37:27;;;;;;;1.92;1.40;;;14.80;99.90;;;15.04;100.00;101504.47;5224127;28;20048;-49
2023/07/18 03:40:02;;;;;;;1.63;1.10;;;14.80;99.90;;;15.02;100.00;101507.94;5224209;28;20056;-49
2023/07/18 03:42:35;;;;;;;2.97;1.33;;;14.70;99.90;;;14.98;100.00;101498.16;5223685;28;20048;-49
2023/07/18 03:45:10;;;;;;;3.83;1.45;;;14.70;99.90;;;14.96;100.00;101510.38;5223905;28;20068;-49
2023/07/18 03:47:45;;;;;;;2.75;1.38;;;14.70;99.90;;;14.93;100.00;101508.53;5215725;28;20041;-49
2023/07/18 03:50:19;;;;;;;1.58;1.25;;;14.70;99.90;;;14.92;100.00;101507.66;5223584;28;20086;-49
2023/07/18 03:52:51;;;;;;;2.70;1.20;;;14.70;99.90;;;14.91;100.00;101511.13;5215565;28;20056;-49
2023/07/18 03:55:25;;;;;;;2.00;1.42;;;14.70;99.90;;;14.90;100.00;101511.97;5223925;28;20055;-49
2023/07/18 03:57:58;;;;;;;3.22;1.30;;;14.70;99.90;;;14.89;100.00;101509.31;5218716;28;20060;-49
2023/07/18 04:00:30;;;;;;;2.55;1.60;;;14.60;99.90;;;14.90;100.00;101509.34;5229594;28;20048;-49
2023/07/18 04:03:03;;;;;;;2.92;1.55;;;14.60;99.90;;;14.91;100.00;101516.38;5215621;28;20037;-49
2023/07/18 04:05:38;;;;;;;2.13;1.27;;;14.60;99.90;;;14.92;100.00;101507.66;5223345;28;20056;-50
2023/07/18 04:08:11;;;;;;;3.03;1.20;;;14.70;99.90;;;14.91;100.00;101508.50;5216503;28;20056;-49
2023/07/18 04:10:44;;;;;;;3.17;1.25;;;14.60;99.90;;;14.91;100.00;101505.88;5227982;28;20077;-50
2023/07/18 04:13:17;;;;;;;2.58;1.30;;;14.60;99.90;;;14.91;100.00;101503.25;5235686;28;20414;-49
2023/07/18 04:15:49;;;;;;;3.42;1.50;;;14.70;99.90;;;14.90;100.00;101501.47;5219257;28;20045;-50
2023/07/18 04:18:22;;;;;;;1.88;1.10;;;14.60;99.90;;;14.91;100.00;101502.34;5227996;28;20064;-49
2023/07/18 04:21:01;;;;;;;1.90;1.20;;;14.70;99.90;;;14.91;100.00;101500.63;5223310;28;20048;-49
2023/07/18 04:23:34;;;;;;;2.10;1.35;;;14.70;99.90;;;14.92;100.00;101507.66;5221526;28;20049;-49
2023/07/18 04:26:09;;;;;;;2.58;1.48;;;14.60;99.90;;;14.93;100.00;101498.94;5233801;28;20053;-49
2023/07/18 04:28:41;;;;;;;2.50;1.60;;;14.70;99.90;;;14.97;100.00;101496.41;5214928;28;20056;-49
2023/07/18 04:31:14;;;;;;;2.10;1.30;;;14.70;99.90;;;15.05;100.00;101489.63;5223164;28;20041;-49
2023/07/18 04:33:47;;;;;;;1.67;1.20;;;14.80;99.90;;;15.11;100.00;101495.03;5221973;28;20041;-49
2023/07/18 04:36:19;;;;;;;3.28;2.08;;;14.80;99.90;;;15.14;100.00;101500.41;5223160;28;20449;-51
2023/07/18 04:38:52;;;;;;;4.13;1.73;;;14.90;99.90;;;15.19;100.00;101501.38;5218861;28;20514;-50
2023/07/18 04:41:25;;;;;;;2.78;1.50;;;14.90;99.90;;;15.23;100.00;101502.38;5235551;28;20052;-50
2023/07/18 04:43:58;;;;;;;2.55;1.33;;;15.00;99.90;;;15.26;100.00;101495.47;5222942;28;20045;-49
2023/07/18 04:46:30;;;;;;;2.60;1.52;;;15.00;99.90;;;15.30;100.00;101506.94;5222508;28;20049;-50
2023/07/18 04:49:03;;;;;;;4.75;1.60;;;15.00;99.90;;;15.35;100.00;101506.22;5214614;28;20093;-50
2023/07/18 04:51:36;;;;;;;4.22;1.50;;;15.10;99.90;;;15.39;100.00;101497.56;5214546;28;20072;-50
2023/07/18 04:54:09;;;;;;;1.98;1.35;;;15.10;99.90;;;15.47;100.00;101500.41;5222642;28;20045;-51
2023/07/18 04:56:42;;;;;;;3.13;1.35;;;15.20;99.90;;;15.61;100.00;101485.88;5211936;28;20451;-50
2023/07/18 04:59:15;;;;;;;3.13;1.55;;;15.30;99.90;;;15.92;100.00;101490.19;5218814;28;20055;-51
2023/07/18 05:01:47;;;;;;;4.20;1.85;;;15.50;99.90;;;16.37;100.00;101491.22;5218112;28;20046;-50
2023/07/18 05:04:20;;;;;;;5.35;1.70;;;15.90;99.90;;;16.84;100.00;101481.72;5234601;28;20770;-51
2023/07/18 05:06:52;;;;;;;3.67;1.60;;;16.40;99.90;;;17.38;100.00;101486.25;5210135;28;20045;-50
2023/07/18 05:09:25;;;;;;;5.38;1.67;;;16.80;99.90;;;17.83;100.00;101483.53;5218210;28;20065;-50
2023/07/18 05:11:58;;;;;;;3.00;1.50;;;17.30;99.90;;;18.23;100.00;101483.25;5231033;28;20055;-50
2023/07/18 05:14:31;;;;;;;4.05;1.52;;;17.60;99.90;;;18.62;97.79;101480.25;5220872;28;20052;-50
2023/07/18 05:17:03;;;;;;;4.15;2.03;;;18.00;99.90;;;18.99;95.08;101479.00;5223550;28;20521;-50
2023/07/18 05:19:36;;;;;;;4.57;1.63;;;18.40;99.90;;;19.27;94.33;101482.81;5213429;28;20041;-51
2023/07/18 05:22:08;;;;;;;4.15;1.50;;;18.60;99.90;;;19.56;92.26;101485.75;5213775;28;20051;-51
2023/07/18 05:24:41;;;;;;;3.97;1.70;;;18.90;99.90;;;19.88;90.91;101487.75;5221588;28;20082;-50
2023/07/18 05:27:15;;;;;;;4.45;1.73;;;19.20;99.90;;;20.15;88.72;101479.13;5207248;28;20144;-50
2023/07/18 05:29:47;;;;;;;4.63;1.67;;;19.50;99.90;;;20.48;86.74;101478.50;5221128;28;20053;-50
2023/07/18 05:32:19;;;;;;;3.63;1.52;;;19.80;99.90;;;20.75;85.56;101483.91;5205446;28;20052;-51
2023/07/18 05:34:52;;;;;;;3.30;1.95;;;20.10;99.60;;;21.05;83.71;101487.53;5234161;28;20064;-50
2023/07/18 05:37:25;;;;;;;3.22;1.90;;;20.30;98.80;;;21.24;82.71;101492.00;5225784;28;20053;-50
2023/07/18 05:39:58;;;;;;;4.53;1.63;;;20.60;98.40;;;21.53;81.75;101499.16;5205693;28;20060;-52
2023/07/18 05:42:32;;;;;;;4.32;1.77;;;20.80;97.90;;;21.77;80.06;101499.16;5212849;28;20060;-51
2023/07/18 05:45:05;;;;;;;3.20;1.70;;;21.00;97.30;;;21.94;79.68;101494.72;5221511;28;20402;-51
2023/07/18 05:47:40;;;;;;;3.70;1.70;;;21.20;97.00;;;22.08;78.73;101485.84;5212187;28;20076;-51
2023/07/18 05:50:14;;;;;;;4.95;1.52;;;21.40;96.40;;;22.08;78.25;101488.50;5213409;28;20399;-52
2023/07/18 05:52:48;;;;;;;4.65;1.63;;;21.40;96.00;;;22.17;77.37;101496.50;5209913;28;20038;-50
2023/07/18 05:55:21;;;;;;;5.00;1.90;;;21.50;95.60;;;22.10;77.20;101484.09;5233406;28;20099;-51
2023/07/18 05:57:54;;;;;;;4.30;1.70;;;21.50;95.40;;;22.18;77.34;101492.97;5220657;28;20521;-51
2023/07/18 06:00:27;;;;;;;4.47;1.65;;;21.60;95.30;;;22.25;76.57;101496.50;5220227;28;20057;-50
2023/07/18 06:02:59;;;;;;;4.65;1.88;;;21.60;95.00;;;22.30;75.75;101500.00;5212854;28;20041;-50
2023/07/18 06:05:31;;;;;;;3.38;1.60;;;21.60;94.60;;;22.37;75.48;101492.03;5220563;28;20056;-50
2023/07/18 06:08:07;;;;;;;4.00;1.50;;;21.70;94.40;;;22.54;75.42;101493.75;5217506;28;20703;-52
2023/07/18 06:10:39;;;;;;;4.38;1.58;;;21.80;94.30;;;22.60;74.80;101499.03;5217543;28;20045;-50
2023/07/18 06:13:13;;;;;;;2.88;1.77;;;21.90;93.90;;;22.67;74.30;101484.84;5232237;28;20053;-50
2023/07/18 06:15:50;;;;;;;6.45;1.58;;;22.00;93.70;;;22.56;75.15;101489.28;5221338;28;20049;-52
2023/07/18 06:18:22;;;;;;;4.13;1.88;;;22.00;94.00;;;22.63;74.01;101489.28;5221701;28;20053;-51
2023/07/18 06:20:55;;;;;;;3.78;1.55;;;22.10;93.30;;;22.83;74.64;101491.88;5200810;28;20557;-50
2023/07/18 06:23:28;;;;;;;3.72;1.55;;;22.20;93.40;;;22.91;74.06;101487.41;5218690;28;20055;-50
2023/07/18 06:26:01;;;;;;;2.80;1.40;;;22.30;93.10;;;23.12;74.54;101486.41;5214019;28;20048;-51
2023/07/18 06:28:35;;;;;;;3.78;1.60;;;22.40;93.20;;;23.27;73.52;101490.75;5221131;28;20041;-49
2023/07/18 06:31:07;;;;;;;2.47;1.50;;;22.70;92.80;;;23.19;72.85;101484.59;5221238;28;20056;-49
2023/07/18 06:33:40;;;;;;;3.53;1.80;;;22.70;92.30;;;23.00;72.86;101487.34;5221231;28;20045;-49
2023/07/18 06:36:13;;;;;;;4.05;1.30;;;22.50;92.00;;;22.77;73.65;101475.94;5221538;28;20143;-50
2023/07/18 06:38:45;;;;;;;2.55;1.33;;;22.30;92.10;;;22.64;74.33;101484.84;5221238;28;20076;-48
2023/07/18 06:41:18;;;;;;;4.10;1.58;;;22.20;92.40;;;22.76;74.69;101484.81;5212708;28;20465;-47
2023/07/18 06:43:52;;;;;;;3.33;1.67;;;22.20;92.70;;;22.99;74.92;101482.06;5221087;28;20147;-48
2023/07/18 06:46:24;;;;;;;2.92;1.58;;;22.40;92.90;;;23.07;74.18;101469.59;5221225;28;20053;-48
2023/07/18 06:48:56;;;;;;;3.35;1.70;;;22.40;92.60;;;23.25;74.68;101469.47;5225001;28;20532;-48
2023/07/18 06:51:30;;;;;;;3.13;1.45;;;22.60;92.80;;;23.17;73.59;101470.44;5224877;28;20486;-48
2023/07/18 06:54:02;;;;;;;4.07;1.60;;;22.50;92.50;;;23.07;74.10;101469.59;5221264;28;20049;-48
2023/07/18 06:56:36;;;;;;;2.50;1.30;;;22.50;92.40;;;23.05;74.80;101470.50;5222552;28;20053;-48
2023/07/18 06:59:10;;;;;;;3.85;1.50;;;22.50;92.60;;;23.01;74.71;101464.31;5230280;28;20418;-48
2023/07/18 07:01:43;;;;;;;2.17;1.50;;;22.40;92.50;;;23.02;74.10;101469.63;5227758;28;20045;-49
2023/07/18 07:04:17;;;;;;;2.42;1.60;;;22.40;92.40;;;23.21;74.08;101458.88;5233533;28;20387;-48
2023/07/18 07:06:49;;;;;;;3.13;1.65;;;22.50;92.30;;;23.28;73.43;101463.28;5233502;28;20048;-48
2023/07/18 07:09:21;;;;;;;2.90;1.30;;;22.60;92.10;;;23.36;72.99;101464.09;5224254;28;20578;-48
2023/07/18 07:11:54;;;;;;;2.63;1.33;;;22.70;91.90;;;23.51;72.01;101469.28;5224605;28;20045;-49
2023/07/18 07:14:27;;;;;;;1.88;1.27;;;22.80;91.50;;;23.59;70.99;101457.69;5224744;28;20052;-49
2023/07/18 07:17:00;;;;;;;3.35;1.40;;;22.80;91.10;;;23.66;70.59;101454.13;5216566;28;20426;-49
2023/07/18 07:19:32;;;;;;;3.13;1.45;;;22.90;90.80;;;23.73;71.91;101462.03;5215447;28;20048;-49
2023/07/18 07:22:11;;;;;;;4.55;1.63;;;23.00;91.20;;;23.79;71.34;101451.31;5211307;28;20657;-48
2023/07/18 07:24:43;;;;;;;1.80;1.20;;;23.00;91.00;;;23.73;70.43;101461.16;5236632;28;20574;-47
2023/07/18 07:27:16;;;;;;;2.88;1.50;;;23.00;90.60;;;23.67;71.02;101450.56;5226739;28;20041;-48
2023/07/18 07:29:51;;;;;;;2.40;1.20;;;23.00;90.60;;;23.61;71.09;101455.94;5215800;28;20506;-49
2023/07/18 07:32:23;;;;;;;3.42;1.38;;;22.90;90.60;;;23.42;70.89;101453.41;5223886;28;20072;-48
2023/07/18 07:34:55;;;;;;;3.53;1.40;;;22.80;90.40;;;23.37;71.43;101447.22;5207250;28;20041;-45
2023/07/18 07:37:28;;;;;;;3.38;1.58;;;22.80;90.60;;;23.40;71.54;101444.53;5215542;28;20044;-45
2023/07/18 07:40:00;;;;;;;3.17;1.52;;;22.70;90.60;;;23.50;70.73;101443.59;5213340;28;20045;-45
2023/07/18 07:42:33;;;;;;;3.75;1.63;;;22.80;90.50;;;23.68;70.46;101436.38;5230787;28;20422;-45
2023/07/18 07:45:08;;;;;;;2.40;1.35;;;22.90;90.40;;;23.93;70.23;101434.34;5231950;28;20052;-45
2023/07/18 07:47:41;;;;;;;2.97;1.73;;;23.10;90.40;;;24.07;69.52;101433.31;5213866;28;20094;-45
2023/07/18 07:50:13;;;;;;;4.80;1.73;;;23.20;90.20;;;24.12;69.58;101427.91;5219643;28;20406;-45
2023/07/18 07:52:46;;;;;;;3.53;1.35;;;23.20;90.00;;;24.20;69.14;101425.19;5229271;28;20053;-45
2023/07/18 07:55:18;;;;;;;3.05;1.40;;;23.30;89.70;;;24.34;68.86;101417.94;5217058;28;20046;-45
2023/07/18 07:57:54;;;;;;;3.95;1.40;;;23.40;89.70;;;24.59;68.82;101419.41;5234066;28;20522;-45
2023/07/18 08:00:28;;;;;;;2.50;1.25;;;23.60;89.60;;;24.84;68.14;101427.03;5214850;28;20048;-45
2023/07/18 08:03:00;;;;;;;;;;;23.80;89.00;;;24.97;66.82;101415.28;5214864;28;20044;-45
2023/07/18 08:05:32;;;;;;;3.10;1.50;;;24.00;87.60;;;25.34;67.02;101414.75;5223224;28;19991;-45
2023/07/18 08:08:05;;;;;;;3.33;1.60;;;24.30;87.80;;;25.79;65.37;101422.91;5212923;28;20518;-45
2023/07/18 08:10:37;;;;;;;3.58;1.45;;;24.60;86.60;;;26.00;63.72;101417.16;5214570;28;20060;-45
2023/07/18 08:13:10;;;;;;;3.85;1.42;;;24.90;84.90;;;26.30;62.88;101420.16;5222542;28;20140;-47
2023/07/18 08:15:44;;;;;;;2.20;1.50;;;25.10;83.90;;;26.50;61.89;101424.22;5214712;28;20048;-48
2023/07/18 08:18:16;;;;;;;4.57;1.20;;;25.20;82.50;;;26.77;61.04;101406.66;5216895;28;20052;-48
2023/07/18 08:20:48;;;;;;;3.28;1.58;;;25.40;81.60;;;27.22;59.78;101413.69;5214209;28;20041;-48
2023/07/18 08:23:21;;;;;;;2.17;1.33;;;25.70;80.70;;;27.58;58.80;101411.88;5216502;28;20072;-48
2023/07/18 08:25:54;;;;;;;2.88;1.25;;;25.90;79.70;;;27.83;59.18;101413.00;5238431;28;20606;-48
2023/07/18 08:28:26;;;;;;;2.65;1.30;;;26.10;79.70;;;28.21;58.58;101413.75;5215788;28;20422;-48
2023/07/18 08:31:04;;;;;;;3.10;1.45;;;26.30;79.80;;;28.49;56.30;101412.97;5221225;28;20056;-48
2023/07/18 08:33:36;;;;;;;2.63;1.17;;;26.60;77.60;;;28.70;55.20;101425.75;5219843;28;20057;-47
2023/07/18 08:36:08;;;;;;;2.65;1.10;;;26.70;75.80;;;28.73;55.29;101404.19;5220414;28;20607;-48
2023/07/18 08:38:46;;;;;;;3.13;1.50;;;26.80;75.40;;;28.56;55.60;101411.88;5227721;28;20056;-48
2023/07/18 08:41:20;;;;;;;4.10;1.75;;;26.70;75.40;;;28.31;55.48;101404.56;5225271;28;20434;-48
2023/07/18 08:43:53;;;;;;;2.75;1.30;;;26.70;74.60;;;28.08;55.37;101406.97;5221851;28;20046;-47
2023/07/18 08:46:27;;;;;;;2.95;1.10;;;26.50;73.90;;;28.12;55.83;101409.53;5211871;28;20048;-48
2023/07/18 08:49:01;;;;;;;2.80;1.25;;;26.40;74.10;;;28.77;53.91;101395.13;5231617;28;20498;-47
2023/07/18 08:51:33;;;;;;;3.03;1.15;;;26.70;73.10;;;29.64;52.87;101394.97;5219170;28;20049;-50
2023/07/18 08:54:09;;;;;;;2.40;1.38;;;27.20;72.70;;;30.35;50.94;101390.63;5202264;28;20045;-49
2023/07/18 08:56:43;;;;;;;5.32;1.70;;;27.80;70.90;;;30.73;50.27;101380.22;5225266;28;20060;-48
2023/07/18 08:59:18;;;;;;;2.55;1.40;;;28.10;70.40;;;30.58;49.14;101389.72;5211171;28;20471;-48
2023/07/18 09:01:53;;;;;;;3.95;1.50;;;28.20;67.90;;;30.70;48.53;101380.31;5203551;28;20049;-48
2023/07/18 09:04:28;;;;;;;3.83;1.15;;;28.40;66.60;;;30.59;48.55;101378.03;5207428;28;20045;-48
2023/07/18 09:07:02;;;;;;;3.28;1.40;;;28.40;66.40;;;30.28;49.47;101378.34;5229801;28;20160;-48
2023/07/18 09:09:35;;;;;;;4.35;1.25;;;28.20;66.30;;;30.22;49.90;101367.81;5210514;28;20053;-46
2023/07/18 09:12:09;;;;;;;3.55;1.63;;;28.10;66.80;;;30.50;49.07;101373.88;5217159;28;20113;-46
2023/07/18 09:14:41;;;;;;;3.13;1.27;;;28.30;66.20;;;30.33;48.46;101372.81;5227183;28;20145;-46
2023/07/18 09:17:15;;;;;;;2.53;1.40;;;28.20;65.30;;;29.70;48.97;101359.84;5216217;28;20068;-46
2023/07/18 09:19:48;;;;;;;;;;;27.90;64.70;;;29.11;49.76;101348.44;5227578;28;20048;-46
2023/07/18 09:22:21;;;;;;;2.97;1.38;;;27.60;65.00;;;28.75;52.57;101353.16;5217818;28;20374;-46
2023/07/18 09:24:56;;;;;;;3.15;1.50;;;27.30;67.10;;;28.52;52.56;101343.19;5211702;28;20403;-45
2023/07/18 09:27:28;;;;;;;3.85;1.40;;;27.10;67.60;;;28.59;51.67;101345.63;5220028;28;20140;-48
2023/07/18 09:30:01;;;;;;;2.90;1.13;;;27.00;66.60;;;28.78;50.90;101345.91;5213536;28;20091;-48
2023/07/18 09:32:35;;;;;;;3.40;1.30;;;27.10;66.20;;;28.93;51.41;101340.06;5215822;28;20051;-49
2023/07/18 09:35:07;;;;;;;;;;;27.20;66.70;;;28.90;51.32;101340.16;5210819;28;20056;-49
2023/07/18 09:37:46;;;;;;;3.25;1.25;;;27.30;66.70;;;29.05;52.56;101328.06;5217659;28;19936;-49
2023/07/18 09:40:22;;;;;;;4.13;1.10;;;27.40;67.50;;;29.00;51.12;101326.44;5221294;28;20047;-49
2023/07/18 09:42:55;;;;;;;3.03;1.40;;;27.50;66.30;;;28.55;51.72;101326.97;5200128;28;20539;-48
2023/07/18 09:45:28;;;;;;;3.97;1.30;;;27.30;65.80;;;28.07;52.74;101340.91;5230432;28;20057;-48
2023/07/18 09:48:04;;;;;;;3.17;1.27;;;27.00;66.40;;;27.64;52.99;101335.84;5217033;28;20053;-48
2023/07/18 09:50:40;;;;;;;2.88;1.27;;;26.70;66.50;;;27.30;53.74;101336.75;5225531;28;20052;-48
2023/07/18 09:53:13;;;;;;;2.83;1.20;;;26.40;66.80;;;27.33;53.84;101331.34;5201431;28;20060;-48
2023/07/18 09:55:46;;;;;;;2.58;1.23;;;26.30;67.30;;;27.59;52.54;101334.19;5227248;28;20049;-48
2023/07/18 09:58:21;;;;;;;4.40;1.17;;;26.40;66.50;;;27.95;52.37;101341.28;5215846;28;20049;-49
2023/07/18 10:00:56;;;;;;;2.67;1.20;;;26.70;66.40;;;28.29;53.19;101358.09;5236015;28;20514;-48
2023/07/18 10:03:31;;;;;;;2.72;1.20;;;27.00;67.10;;;28.58;52.62;101346.53;5213626;28;20048;-48
2023/07/18 10:06:03;;;;;;;2.97;1.20;;;27.30;67.00;;;28.62;51.68;101345.50;5201295;28;20033;-48
2023/07/18 10:08:38;;;;;;;2.50;1.10;;;27.40;65.70;;;28.63;51.32;101351.78;5217630;28;20045;-48
2023/07/18 10:11:11;;;;;;;;;;;27.40;65.20;;;28.54;50.75;101347.56;5213547;28;20425;-48
2023/07/18 10:14:21;;;;;;;2.58;1.15;;;27.40;64.60;;;28.57;51.09;101336.75;5221054;28;19921;-48
2023/07/18 10:16:55;;;;;;;3.65;1.20;;;27.40;64.90;;;28.52;51.50;101337.81;5222380;28;20724;-48
2023/07/18 10:19:29;;;;;;;2.55;1.15;;;27.40;65.00;;;28.34;50.47;101324.03;5207712;28;20069;-48
2023/07/18 10:22:02;;;;;;;2.78;1.30;;;27.30;64.00;;;28.14;51.08;101326.41;5225727;28;20049;-48
2023/07/18 10:24:38;;;;;;;3.25;1.70;;;27.10;64.20;;;27.92;51.92;101333.34;5225801;28;20037;-48
2023/07/18 10:27:10;;;;;;;2.20;1.20;;;27.00;64.80;;;27.68;51.62;101322.38;5204009;28;20519;-48
2023/07/18 10:30:03;;;;;;;3.25;1.40;;;26.80;64.50;;;27.34;51.71;101313.47;5229730;28;20383;-48
2023/07/18 10:32:38;;;;;;;3.70;1.20;;;26.50;64.00;;;27.13;51.88;101297.06;5228575;28;20064;-48
2023/07/18 10:35:14;;;;;;;1.88;1.10;;;26.40;64.30;;;26.94;52.41;101287.72;5227895;28;20148;-48